createdAt,value
2023-02-13T00:00:35.301Z,103779.91
2023-02-13T00:03:02.402Z,103773.63
2023-02-13T00:05:29.465Z,103782.56
2023-02-13T00:07:57.333Z,103774.72
2023-02-13T00:10:25.631Z,103768.69
2023-02-13T00:12:52.454Z,103775.06
2023-02-13T00:15:19.492Z,103767.25
2023-02-13T00:17:46.385Z,103767.25
2023-02-13T00:20:13.679Z,103756.69
2023-02-13T00:22:41.505Z,103759.41
2023-02-13T00:25:09.187Z,103756.91
2023-02-13T00:27:37.443Z,103763.03
2023-02-13T00:30:06.803Z,103751.63
2023-02-13T00:32:34.236Z,103760.28
2023-02-13T00:35:01.103Z,103747.16
2023-02-13T00:37:28.004Z,103754.97
2023-02-13T00:39:56.143Z,103755.81
2023-02-13T00:42:26.323Z,103753.91
2023-02-13T00:44:55.044Z,103753.91
2023-02-13T00:47:22.471Z,103762.56
2023-02-13T00:49:49.434Z,103758.97
2023-02-13T00:52:16.308Z,103761.38
2023-02-13T00:54:43.227Z,103767.38
2023-02-13T00:57:10.124Z,103759.31
2023-02-13T00:59:37.006Z,103758.59
2023-02-13T01:02:05.261Z,103760.41
2023-02-13T01:04:32.604Z,103764.03
2023-02-13T01:06:59.485Z,103770.13
2023-02-13T01:09:26.463Z,103769.91
2023-02-13T01:11:53.384Z,103754.66
2023-02-13T01:14:20.268Z,103757.03
2023-02-13T01:16:47.147Z,103761.38
2023-02-13T01:19:15.726Z,103763.78
2023-02-13T01:21:44.035Z,103763.66
2023-02-13T01:24:11.255Z,103761.38
2023-02-13T01:26:38.305Z,103756.31
2023-02-13T01:29:05.291Z,103758.00
2023-02-13T01:31:32.343Z,103748.38
2023-02-13T01:34:00.071Z,103754.66
2023-02-13T01:36:28.432Z,103749.34
2023-02-13T01:38:57.728Z,103746.00
2023-02-13T01:41:27.412Z,103740.69
2023-02-13T01:43:57.378Z,103748.72
2023-02-13T01:46:31.446Z,103744.41
2023-02-13T01:49:03.238Z,103751.59
2023-02-13T01:51:35.191Z,103741.66
2023-02-13T01:54:10.519Z,103733.44
2023-02-13T01:56:43.990Z,103729.38
2023-02-13T01:59:16.903Z,103719.38
2023-02-13T02:01:45.108Z,103711.56
2023-02-13T02:04:19.766Z,103709.88
2023-02-13T02:06:52.841Z,103721.16
2023-02-13T02:09:25.587Z,103718.28
2023-02-13T02:12:00.645Z,103715.75
2023-02-13T02:14:28.171Z,103727.19
2023-02-13T02:16:56.287Z,103717.56
2023-02-13T02:19:37.864Z,103716.84
2023-02-13T02:22:46.391Z,103715.63
2023-02-13T02:26:14.645Z,103714.19
2023-02-13T02:29:23.945Z,103703.81
2023-02-13T02:32:15.953Z,103704.69
2023-02-13T02:34:59.489Z,103698.78
2023-02-13T02:37:46.142Z,103707.06
2023-02-13T02:40:32.171Z,103701.38
2023-02-13T02:43:18.242Z,103701.84
2023-02-13T02:45:57.288Z,103696.78
2023-02-13T02:48:52.256Z,103699.91
2023-02-13T02:51:25.021Z,103695.06
2023-02-13T02:54:03.389Z,103682.81
2023-02-13T02:56:38.163Z,103689.06
2023-02-13T02:59:30.834Z,103687.41
2023-02-13T03:02:18.924Z,103690.97
2023-02-13T03:05:11.526Z,103693.63
2023-02-13T03:07:38.677Z,103687.41
2023-02-13T03:10:28.191Z,103690.50
2023-02-13T03:13:21.655Z,103677.19
2023-02-13T03:16:10.107Z,103683.56
2023-02-13T03:18:59.681Z,103682.09
2023-02-13T03:22:03.389Z,103680.63
2023-02-13T03:24:46.616Z,103675.59
2023-02-13T03:27:59.623Z,103680.97
2023-02-13T03:30:40.783Z,103681.34
2023-02-13T03:33:27.425Z,103691.81
2023-02-13T03:36:26.311Z,103689.78
2023-02-13T03:39:02.742Z,103687.97
2023-02-13T03:41:38.567Z,103690.28
2023-02-13T03:44:16.035Z,103681.16
2023-02-13T03:46:50.087Z,103682.63
2023-02-13T03:49:41.387Z,103685.75
2023-02-13T03:52:16.728Z,103693.69
2023-02-13T03:55:11.346Z,103692.34
2023-02-13T03:58:01.559Z,103689.72
2023-02-13T04:00:38.862Z,103692.97
2023-02-13T04:03:15.521Z,103687.53
2023-02-13T04:05:48.331Z,103688.63
2023-02-13T04:08:15.763Z,103685.84
2023-02-13T04:10:52.765Z,103677.56
2023-02-13T04:13:29.915Z,103678.78
2023-02-13T04:16:03.140Z,103680.97
2023-02-13T04:18:33.405Z,103681.44
2023-02-13T04:21:03.662Z,103690.16
2023-02-13T04:23:30.706Z,103698.78
2023-02-13T04:26:03.779Z,103697.00
2023-02-13T04:28:30.933Z,103698.78
2023-02-13T04:30:58.592Z,103689.06
2023-02-13T04:33:25.720Z,103693.25
2023-02-13T04:35:52.626Z,103692.06
2023-02-13T04:38:19.478Z,103691.09
2023-02-13T04:40:46.368Z,103681.13
2023-02-13T04:43:14.588Z,103682.69
2023-02-13T04:45:41.537Z,103685.56
2023-02-13T04:48:09.883Z,103691.94
2023-02-13T04:50:36.740Z,103686.88
2023-02-13T04:53:03.642Z,103685.22
2023-02-13T04:55:30.766Z,103683.16
2023-02-13T04:57:59.051Z,103676.94
2023-02-13T05:00:29.990Z,103685.56
2023-02-13T05:03:03.951Z,103684.63
2023-02-13T05:05:30.861Z,103680.28
2023-02-13T05:07:57.746Z,103677.63
2023-02-13T05:10:24.758Z,103683.78
2023-02-13T05:12:51.731Z,103680.91
2023-02-13T05:15:18.829Z,103688.56
2023-02-13T05:17:47.296Z,103686.78
2023-02-13T05:20:15.703Z,103688.47
2023-02-13T05:23:04.907Z,103690.50
2023-02-13T05:25:32.214Z,103691.59
2023-02-13T05:27:59.252Z,103697.84
2023-02-13T05:30:26.405Z,103685.56
2023-02-13T05:32:55.222Z,103696.16
2023-02-13T05:35:23.164Z,103699.75
2023-02-13T05:37:50.604Z,103694.72
2023-02-13T05:40:17.981Z,103694.00
2023-02-13T05:42:44.903Z,103694.72
2023-02-13T05:45:11.819Z,103697.38
2023-02-13T05:47:38.715Z,103697.38
2023-02-13T05:50:09.108Z,103696.63
2023-02-13T05:52:35.990Z,103698.31
2023-02-13T05:55:02.891Z,103690.28
2023-02-13T05:57:29.771Z,103696.38
2023-02-13T05:59:56.629Z,103691.94
2023-02-13T06:02:23.711Z,103706.75
2023-02-13T06:04:50.685Z,103703.16
2023-02-13T06:07:20.016Z,103701.44
2023-02-13T06:09:46.875Z,103705.78
2023-02-13T06:12:13.791Z,103703.97
2023-02-13T06:14:40.764Z,103705.53
2023-02-13T06:17:07.685Z,103713.38
2023-02-13T06:19:34.548Z,103700.72
2023-02-13T06:22:01.612Z,103706.63
2023-02-13T06:24:29.827Z,103708.44
2023-02-13T06:26:58.053Z,103717.22
2023-02-13T06:29:25.117Z,103719.72
2023-02-13T06:31:52.137Z,103717.09
2023-02-13T06:34:19.038Z,103719.97
2023-02-13T06:36:47.251Z,103719.88
2023-02-13T06:39:14.430Z,103721.44
2023-02-13T06:41:44.576Z,103725.88
2023-02-13T06:44:11.477Z,103728.38
2023-02-13T06:46:38.497Z,103726.47
2023-02-13T06:49:05.477Z,103722.88
2023-02-13T06:51:32.390Z,103728.16
2023-02-13T06:53:59.285Z,103735.38
2023-02-13T06:56:26.353Z,103732.97
2023-02-13T06:58:54.558Z,103733.94
2023-02-13T07:01:21.613Z,103738.25
2023-02-13T07:03:48.706Z,103738.16
2023-02-13T07:06:18.754Z,103753.91
2023-02-13T07:08:46.180Z,103744.88
2023-02-13T07:11:20.802Z,103747.63
2023-02-13T07:13:47.810Z,103750.28
2023-02-13T07:16:16.746Z,103745.81
2023-02-13T07:18:44.060Z,103747.88
2023-02-13T07:21:11.017Z,103745.59
2023-02-13T07:23:38.241Z,103742.34
2023-02-13T07:26:06.168Z,103742.34
2023-02-13T07:28:33.284Z,103739.69
2023-02-13T07:31:05.724Z,103744.97
2023-02-13T07:33:35.673Z,103746.69
2023-02-13T07:36:03.536Z,103747.41
2023-02-13T07:38:31.603Z,103747.88
2023-02-13T07:40:59.578Z,103749.56
2023-02-13T07:43:27.101Z,103751.25
2023-02-13T07:45:57.639Z,103754.63
2023-02-13T07:48:28.313Z,103760.75
2023-02-13T07:51:01.657Z,103768.56
2023-02-13T07:53:29.262Z,103762.06
2023-02-13T07:56:33.173Z,103754.97
2023-02-13T07:59:00.059Z,103758.69
2023-02-13T08:01:27.056Z,103755.81
2023-02-13T08:03:54.037Z,103749.22
2023-02-13T08:06:22.677Z,103749.72
2023-02-13T08:09:09.652Z,103751.16
2023-02-13T08:11:55.125Z,103751.03
2023-02-13T08:14:26.178Z,103751.16
2023-02-13T08:16:54.764Z,103749.44
2023-02-13T08:19:22.011Z,103746.09
2023-02-13T08:21:50.936Z,103747.06
2023-02-13T08:24:18.555Z,103750.44
2023-02-13T08:26:47.889Z,103747.66
2023-02-13T08:29:16.955Z,103745.50
2023-02-13T08:31:43.963Z,103755.84
2023-02-13T08:34:11.722Z,103752.22
2023-02-13T08:36:38.629Z,103760.88
2023-02-13T08:39:08.732Z,103749.97
2023-02-13T08:41:38.620Z,103749.81
2023-02-13T08:44:05.747Z,103760.19
2023-02-13T08:46:32.724Z,103756.44
2023-02-13T08:48:59.665Z,103757.75
2023-02-13T08:51:26.693Z,103763.66
2023-02-13T08:53:53.675Z,103763.66
2023-02-13T08:56:21.865Z,103757.28
2023-02-13T08:58:50.059Z,103758.72
2023-02-13T09:01:17.143Z,103763.50
2023-02-13T09:03:44.242Z,103763.88
2023-02-13T09:06:12.383Z,103771.44
2023-02-13T09:08:39.709Z,103772.88
2023-02-13T09:11:07.488Z,103770.09
2023-02-13T09:13:37.104Z,103775.41
2023-02-13T09:16:06.886Z,103783.25
2023-02-13T09:18:35.254Z,103777.69
2023-02-13T09:21:05.772Z,103771.66
2023-02-13T09:23:34.626Z,103770.72
2023-02-13T09:26:04.738Z,103772.25
2023-02-13T09:28:33.849Z,103778.41
2023-02-13T09:31:06.797Z,103776.00
2023-02-13T09:33:34.914Z,103772.41
2023-02-13T09:36:05.771Z,103773.72
2023-02-13T09:38:33.055Z,103767.34
2023-02-13T09:41:05.548Z,103766.38
2023-02-13T09:43:37.727Z,103764.13
2023-02-13T09:46:17.925Z,103764.56
2023-02-13T09:48:51.407Z,103772.41
2023-02-13T09:51:23.181Z,103762.38
2023-02-13T09:53:56.284Z,103763.75
2023-02-13T09:56:40.286Z,103766.97
2023-02-13T09:59:26.379Z,103773.81
2023-02-13T10:02:00.463Z,103770.31
2023-02-13T10:04:42.176Z,103773.81
2023-02-13T10:07:24.264Z,103772.88
2023-02-13T10:10:01.186Z,103777.94
2023-02-13T10:13:01.880Z,103778.75
2023-02-13T10:15:39.790Z,103781.28
2023-02-13T10:18:16.092Z,103772.97
2023-02-13T10:20:50.476Z,103776.91
2023-02-13T10:23:25.896Z,103780.03
2023-02-13T10:25:59.949Z,103785.31
2023-02-13T10:28:37.237Z,103783.91
2023-02-13T10:31:11.658Z,103784.13
2023-02-13T10:33:49.687Z,103782.47
2023-02-13T10:36:20.930Z,103778.59
2023-02-13T10:39:00.135Z,103787.50
2023-02-13T10:41:47.583Z,103785.00
2023-02-13T10:44:41.415Z,103780.06
2023-02-13T10:47:28.267Z,103781.03
2023-02-13T10:50:11.056Z,103788.97
2023-02-13T10:52:53.767Z,103786.59
2023-02-13T10:55:59.483Z,103785.88
2023-02-13T10:58:41.707Z,103775.72
2023-02-13T11:01:19.406Z,103780.53
2023-02-13T11:03:49.716Z,103764.38
2023-02-13T11:06:20.126Z,103766.06
2023-02-13T11:08:48.208Z,103766.06
2023-02-13T11:11:33.649Z,103756.53
2023-02-13T11:14:12.933Z,103753.50
2023-02-13T11:16:47.515Z,103744.94
2023-02-13T11:19:24.014Z,103742.88
2023-02-13T11:21:59.003Z,103751.16
2023-02-13T11:24:28.471Z,103750.63
2023-02-13T11:27:08.576Z,103744.38
2023-02-13T11:29:38.014Z,103743.53
2023-02-13T11:32:19.018Z,103747.41
2023-02-13T11:34:47.910Z,103747.41
2023-02-13T11:37:24.211Z,103750.31
2023-02-13T11:39:54.434Z,103739.69
2023-02-13T11:42:28.893Z,103734.25
2023-02-13T11:45:00.821Z,103730.25
2023-02-13T11:47:39.957Z,103728.06
2023-02-13T11:50:24.617Z,103727.81
2023-02-13T11:53:00.499Z,103723.94
2023-02-13T11:55:34.380Z,103731.31
2023-02-13T11:58:04.631Z,103737.72
2023-02-13T12:00:39.894Z,103733.97
2023-02-13T12:03:29.040Z,103733.69
2023-02-13T12:06:06.858Z,103739.84
2023-02-13T12:08:38.106Z,103738.16
2023-02-13T12:11:21.037Z,103747.34
2023-02-13T12:13:49.071Z,103746.38
2023-02-13T12:16:34.960Z,103745.41
2023-02-13T12:19:11.993Z,103740.69
2023-02-13T12:22:06.082Z,103739.44
2023-02-13T12:25:20.611Z,103724.38
2023-02-13T12:28:10.577Z,103723.13
2023-02-13T12:31:12.492Z,103723.41
2023-02-13T12:34:09.525Z,103720.31
2023-02-13T12:36:47.278Z,103715.81
2023-02-13T12:39:26.194Z,103711.38
2023-02-13T12:42:21.811Z,103710.81
2023-02-13T12:45:21.281Z,103719.41
2023-02-13T12:48:11.403Z,103719.66
2023-02-13T12:50:57.254Z,103709.88
2023-02-13T12:53:47.596Z,103707.00
2023-02-13T12:56:59.385Z,103698.19
2023-02-13T12:59:47.696Z,103692.75
2023-02-13T13:03:01.424Z,103691.88
2023-02-13T13:05:58.773Z,103689.97
2023-02-13T13:08:55.279Z,103687.31
2023-02-13T13:11:50.424Z,103688.41
2023-02-13T13:14:32.898Z,103683.94
2023-02-13T13:17:08.773Z,103689.25
2023-02-13T13:19:44.010Z,103685.06
2023-02-13T13:22:19.383Z,103690.47
2023-02-13T13:25:04.538Z,103690.63
2023-02-13T13:27:39.784Z,103690.63
2023-02-13T13:30:17.834Z,103690.03
2023-02-13T13:32:48.481Z,103681.59
2023-02-13T13:35:16.214Z,103684.66
2023-02-13T13:38:02.364Z,103684.78
2023-02-13T13:40:44.216Z,103683.09
2023-02-13T13:43:26.643Z,103675.84
2023-02-13T13:46:15.186Z,103669.72
2023-02-13T13:49:06.678Z,103667.06
2023-02-13T13:51:34.215Z,103665.97
2023-02-13T13:54:25.550Z,103673.19
2023-02-13T13:57:12.887Z,103671.53
2023-02-13T14:00:28.210Z,103664.81
2023-02-13T14:03:37.031Z,103659.50
2023-02-13T14:06:08.220Z,103664.28
2023-02-13T14:09:32.334Z,103654.78
2023-02-13T14:12:45.103Z,103640.81
2023-02-13T14:15:50.216Z,103643.31
2023-02-13T14:18:23.174Z,103646.44
2023-02-13T14:20:59.439Z,103642.56
2023-02-13T14:23:53.410Z,103643.38
2023-02-13T14:26:39.332Z,103639.91
2023-02-13T14:29:25.671Z,103647.88
2023-02-13T14:32:15.919Z,103637.28
2023-02-13T14:34:52.894Z,103633.88
2023-02-13T14:37:30.824Z,103636.44
2023-02-13T14:40:46.598Z,103637.53
2023-02-13T14:43:35.092Z,103636.44
2023-02-13T14:46:22.705Z,103635.44
2023-02-13T14:48:57.305Z,103647.88
2023-02-13T14:51:34.115Z,103637.53
2023-02-13T14:54:20.246Z,103635.97
2023-02-13T14:56:53.487Z,103641.13
2023-02-13T14:59:26.352Z,103636.44
2023-02-13T15:02:01.105Z,103643.97
2023-02-13T15:04:35.320Z,103637.31
2023-02-13T15:07:06.869Z,103634.78
2023-02-13T15:09:40.153Z,103622.50
2023-02-13T15:12:27.827Z,103622.50
2023-02-13T15:14:55.159Z,103629.22
2023-02-13T15:17:26.475Z,103620.81
2023-02-13T15:19:55.898Z,103614.94
2023-02-13T15:22:32.849Z,103625.94
2023-02-13T15:25:01.556Z,103630.28
2023-02-13T15:27:31.581Z,103636.81
2023-02-13T15:30:04.108Z,103633.56
2023-02-13T15:32:36.864Z,103632.16
2023-02-13T15:35:22.393Z,103628.19
2023-02-13T15:37:49.320Z,103624.00
2023-02-13T15:40:25.685Z,103630.69
2023-02-13T15:42:55.152Z,103629.94
2023-02-13T15:45:25.323Z,103626.88
2023-02-13T15:47:55.361Z,103620.81
2023-02-13T15:50:30.832Z,103621.91
2023-02-13T15:53:00.139Z,103628.31
2023-02-13T15:55:31.930Z,103629.69
2023-02-13T15:58:01.739Z,103626.78
2023-02-13T16:00:33.514Z,103631.53
2023-02-13T16:03:04.786Z,103630.66
2023-02-13T16:05:41.439Z,103630.66
2023-02-13T16:08:33.673Z,103633.47
2023-02-13T16:11:30.559Z,103631.63
2023-02-13T16:14:15.619Z,103632.34
2023-02-13T16:16:48.871Z,103631.53
2023-02-13T16:19:44.990Z,103628.16
2023-02-13T16:22:27.857Z,103629.81
2023-02-13T16:25:07.570Z,103629.81
2023-02-13T16:27:43.193Z,103628.16
2023-02-13T16:30:30.704Z,103626.00
2023-02-13T16:33:29.360Z,103622.31
2023-02-13T16:35:59.551Z,103613.53
2023-02-13T16:38:32.781Z,103615.56
2023-02-13T16:41:05.846Z,103617.63
2023-02-13T16:43:45.894Z,103616.22
2023-02-13T16:46:20.159Z,103616.47
2023-02-13T16:49:03.440Z,103622.00
2023-02-13T16:51:39.985Z,103621.16
2023-02-13T16:54:20.449Z,103614.06
2023-02-13T16:56:50.274Z,103616.31
2023-02-13T16:59:54.068Z,103615.63
2023-02-13T17:02:24.310Z,103621.63
2023-02-13T17:04:55.180Z,103620.78
2023-02-13T17:07:25.769Z,103613.09
2023-02-13T17:09:56.399Z,103611.41
2023-02-13T17:12:24.961Z,103618.41
2023-02-13T17:14:53.461Z,103615.47
2023-02-13T17:17:23.207Z,103620.38
2023-02-13T17:19:51.060Z,103619.19
2023-02-13T17:22:35.525Z,103619.31
2023-02-13T17:25:06.386Z,103612.09
2023-02-13T17:27:33.778Z,103613.75
2023-02-13T17:30:02.406Z,103622.69
2023-02-13T17:32:29.891Z,103622.69
2023-02-13T17:34:56.821Z,103618.38
2023-02-13T17:37:26.995Z,103625.94
2023-02-13T17:39:54.854Z,103625.03
2023-02-13T17:42:26.075Z,103623.03
2023-02-13T17:44:54.501Z,103620.03
2023-02-13T17:47:24.443Z,103616.22
2023-02-13T17:49:59.175Z,103615.84
2023-02-13T17:52:32.291Z,103621.03
2023-02-13T17:54:59.248Z,103625.28
2023-02-13T17:57:26.171Z,103629.41
2023-02-13T17:59:53.111Z,103629.66
2023-02-13T18:02:23.772Z,103621.00
2023-02-13T18:04:51.036Z,103629.06
2023-02-13T18:07:21.107Z,103623.88
2023-02-13T18:09:48.268Z,103630.16
2023-02-13T18:12:18.879Z,103631.84
2023-02-13T18:14:46.784Z,103625.59
2023-02-13T18:17:14.353Z,103631.84
2023-02-13T18:19:42.769Z,103635.19
2023-02-13T18:22:11.284Z,103628.22
2023-02-13T18:24:41.771Z,103633.53
2023-02-13T18:27:13.000Z,103635.19
2023-02-13T18:29:40.143Z,103631.84
2023-02-13T18:32:10.216Z,103628.47
2023-02-13T18:34:38.974Z,103628.47
2023-02-13T18:37:08.586Z,103632.09
2023-02-13T18:39:35.606Z,103623.31
2023-02-13T18:42:02.604Z,103621.50
2023-02-13T18:44:29.534Z,103621.16
2023-02-13T18:46:56.632Z,103621.31
2023-02-13T18:49:23.534Z,103620.75
2023-02-13T18:51:50.657Z,103618.22
2023-02-13T18:54:18.955Z,103617.41
2023-02-13T18:56:46.127Z,103615.69
2023-02-13T18:59:13.271Z,103617.63
2023-02-13T19:01:40.820Z,103623.88
2023-02-13T19:04:07.745Z,103625.81
2023-02-13T19:06:34.987Z,103630.41
2023-02-13T19:09:01.925Z,103630.53
2023-02-13T19:11:34.066Z,103615.03
2023-02-13T19:14:02.319Z,103620.34
2023-02-13T19:16:31.615Z,103616.00
2023-02-13T19:19:01.209Z,103625.63
2023-02-13T19:21:32.021Z,103616.13
2023-02-13T19:23:58.987Z,103626.81
2023-02-13T19:26:27.679Z,103616.38
2023-02-13T19:28:57.062Z,103615.53
2023-02-13T19:31:27.198Z,103615.53
2023-02-13T19:33:54.787Z,103619.88
2023-02-13T19:36:24.334Z,103616.22
2023-02-13T19:38:56.625Z,103620.56
2023-02-13T19:41:24.182Z,103610.84
2023-02-13T19:43:53.359Z,103624.78
2023-02-13T19:46:24.404Z,103620.56
2023-02-13T19:48:51.795Z,103609.97
2023-02-13T19:51:22.005Z,103615.28
2023-02-13T19:53:48.972Z,103614.66
2023-02-13T19:56:16.297Z,103617.47
2023-02-13T19:58:43.317Z,103615.75
2023-02-13T20:01:13.572Z,103605.44
2023-02-13T20:03:43.084Z,103602.91
2023-02-13T20:06:13.264Z,103609.28
2023-02-13T20:08:43.079Z,103604.69
2023-02-13T20:11:13.334Z,103614.34
2023-02-13T20:13:40.611Z,103608.19
2023-02-13T20:16:11.127Z,103614.34
2023-02-13T20:18:39.605Z,103612.63
2023-02-13T20:21:10.794Z,103606.16
2023-02-13T20:23:38.386Z,103604.72
2023-02-13T20:26:07.624Z,103599.69
2023-02-13T20:28:34.594Z,103607.19
2023-02-13T20:31:03.880Z,103607.50
2023-02-13T20:33:31.161Z,103599.00
2023-02-13T20:35:58.073Z,103606.47
2023-02-13T20:38:26.399Z,103603.34
2023-02-13T20:40:53.258Z,103600.47
2023-02-13T20:43:21.327Z,103603.59
2023-02-13T20:45:48.271Z,103600.69
2023-02-13T20:48:15.159Z,103600.44
2023-02-13T20:50:42.118Z,103599.47
2023-02-13T20:53:10.021Z,103598.25
2023-02-13T20:55:38.357Z,103597.91
2023-02-13T20:58:05.235Z,103587.78
2023-02-13T21:00:32.237Z,103593.69
2023-02-13T21:02:59.186Z,103595.84
2023-02-13T21:05:26.188Z,103587.41
2023-02-13T21:07:53.084Z,103592.19
2023-02-13T21:10:19.949Z,103594.22
2023-02-13T21:12:48.249Z,103598.91
2023-02-13T21:15:15.321Z,103599.13
2023-02-13T21:17:42.228Z,103602.97
2023-02-13T21:20:10.459Z,103600.56
2023-02-13T21:22:37.398Z,103604.38
2023-02-13T21:25:04.841Z,103599.31
2023-02-13T21:27:31.720Z,103606.53
2023-02-13T21:30:00.066Z,103597.97
2023-02-13T21:32:27.032Z,103590.31
2023-02-13T21:34:56.067Z,103592.22
2023-02-13T21:37:22.972Z,103588.00
2023-02-13T21:39:49.879Z,103595.19
2023-02-13T21:42:16.777Z,103590.88
2023-02-13T21:44:43.639Z,103590.97
2023-02-13T21:47:11.954Z,103594.81
2023-02-13T21:49:38.839Z,103583.66
2023-02-13T21:52:05.867Z,103590.00
2023-02-13T21:54:32.776Z,103585.78
2023-02-13T21:57:00.005Z,103587.69
2023-02-13T21:59:27.205Z,103590.56
2023-02-13T22:01:54.935Z,103589.81
2023-02-13T22:04:23.434Z,103582.97
2023-02-13T22:06:52.607Z,103590.03
2023-02-13T22:09:21.909Z,103586.69
2023-02-13T22:11:51.469Z,103584.16
2023-02-13T22:14:18.972Z,103591.31
2023-02-13T22:16:50.108Z,103586.16
2023-02-13T22:19:17.976Z,103589.03
2023-02-13T22:21:46.248Z,103594.41
2023-02-13T22:24:13.440Z,103593.78
2023-02-13T22:26:45.036Z,103599.19
2023-02-13T22:29:14.169Z,103599.31
2023-02-13T22:31:41.742Z,103602.13
2023-02-13T22:34:13.490Z,103613.88
2023-02-13T22:36:41.207Z,103616.72
2023-02-13T22:39:11.139Z,103616.19
2023-02-13T22:41:38.136Z,103614.75
2023-02-13T22:44:05.366Z,103615.88
2023-02-13T22:46:34.334Z,103616.13
2023-02-13T22:49:01.858Z,103619.09
2023-02-13T22:51:33.185Z,103623.72
2023-02-13T22:54:00.631Z,103622.03
2023-02-13T22:56:30.580Z,103620.38
2023-02-13T22:58:57.595Z,103618.66
2023-02-13T23:01:27.180Z,103620.56
2023-02-13T23:03:55.466Z,103619.84
2023-02-13T23:06:23.347Z,103624.38
2023-02-13T23:08:52.628Z,103620.28
2023-02-13T23:11:40.706Z,103622.16
2023-02-13T23:14:10.203Z,103623.34
2023-02-13T23:16:57.902Z,103615.53
2023-02-13T23:19:25.457Z,103617.66
2023-02-13T23:21:52.364Z,103622.06
2023-02-13T23:24:19.259Z,103623.97
2023-02-13T23:26:46.154Z,103621.47
2023-02-13T23:29:14.459Z,103619.75
2023-02-13T23:31:41.474Z,103623.44
2023-02-13T23:34:08.487Z,103613.84
2023-02-13T23:36:35.432Z,103615.53
2023-02-13T23:39:02.546Z,103621.88
2023-02-13T23:41:29.548Z,103615.75
2023-02-13T23:43:56.449Z,103612.38
2023-02-13T23:46:24.779Z,103621.25
2023-02-13T23:48:51.695Z,103614.28
2023-02-13T23:51:18.694Z,103622.31
2023-02-13T23:53:45.762Z,103625.03
2023-02-13T23:56:12.616Z,103626.94
2023-02-13T23:58:39.522Z,103624.41
